sensor_id;sensor_type;location;lat;lon;timestamp;temperature;humidity
6142;DHT22;71289;51.552;6.210;2023-07-22T00:00:25;16.00;99.90
6142;DHT22;71289;51.552;6.210;2023-07-22T00:02:51;16.00;99.90
6142;DHT22;71289;51.552;6.210;2023-07-22T00:05:17;16.00;99.90
6142;DHT22;71289;51.552;6.210;2023-07-22T00:07:48;16.00;99.90
6142;DHT22;71289;51.552;6.210;2023-07-22T00:10:14;16.00;99.90
6142;DHT22;71289;51.552;6.210;2023-07-22T00:12:40;15.90;99.90
6142;DHT22;71289;51.552;6.210;2023-07-22T00:15:06;15.90;99.90
6142;DHT22;71289;51.552;6.210;2023-07-22T00:17:31;16.00;99.90
6142;DHT22;71289;51.552;6.210;2023-07-22T00:19:57;15.90;99.90
6142;DHT22;71289;51.552;6.210;2023-07-22T00:22:22;15.90;99.90
6142;DHT22;71289;51.552;6.210;2023-07-22T00:24:48;15.90;99.90
6142;DHT22;71289;51.552;6.210;2023-07-22T00:27:14;15.80;99.90
6142;DHT22;71289;51.552;6.210;2023-07-22T00:29:40;15.80;99.90
6142;DHT22;71289;51.552;6.210;2023-07-22T00:32:07;15.80;99.90
6142;DHT22;71289;51.552;6.210;2023-07-22T00:34:34;15.80;99.90
6142;DHT22;71289;51.552;6.210;2023-07-22T00:36:59;15.70;99.90
6142;DHT22;71289;51.552;6.210;2023-07-22T00:39:25;15.70;99.90
6142;DHT22;71289;51.552;6.210;2023-07-22T00:41:50;15.70;99.90
6142;DHT22;71289;51.552;6.210;2023-07-22T00:44:16;15.70;99.90
6142;DHT22;71289;51.552;6.210;2023-07-22T00:46:41;15.80;99.90
6142;DHT22;71289;51.552;6.210;2023-07-22T00:49:09;15.90;99.90
6142;DHT22;71289;51.552;6.210;2023-07-22T00:51:35;15.80;99.90
6142;DHT22;71289;51.552;6.210;2023-07-22T00:54:00;15.70;99.90
6142;DHT22;71289;51.552;6.210;2023-07-22T00:56:26;15.80;99.90
6142;DHT22;71289;51.552;6.210;2023-07-22T00:58:52;15.70;99.90
6142;DHT22;71289;51.552;6.210;2023-07-22T01:01:17;15.70;99.90
6142;DHT22;71289;51.552;6.210;2023-07-22T01:03:43;16.00;99.90
6142;DHT22;71289;51.552;6.210;2023-07-22T01:06:09;15.70;99.90
6142;DHT22;71289;51.552;6.210;2023-07-22T01:08:35;15.70;99.90
6142;DHT22;71289;51.552;6.210;2023-07-22T01:11:01;15.70;99.90
6142;DHT22;71289;51.552;6.210;2023-07-22T01:13:26;15.70;99.90
6142;DHT22;71289;51.552;6.210;2023-07-22T01:15:52;15.70;99.90
6142;DHT22;71289;51.552;6.210;2023-07-22T01:18:18;15.70;99.90
6142;DHT22;71289;51.552;6.210;2023-07-22T01:20:45;15.70;99.90
6142;DHT22;71289;51.552;6.210;2023-07-22T01:23:11;15.80;99.90
6142;DHT22;71289;51.552;6.210;2023-07-22T01:25:37;16.00;99.90
6142;DHT22;71289;51.552;6.210;2023-07-22T01:28:02;15.80;99.90
6142;DHT22;71289;51.552;6.210;2023-07-22T01:30:28;15.80;99.90
6142;DHT22;71289;51.552;6.210;2023-07-22T01:32:54;15.80;99.90
6142;DHT22;71289;51.552;6.210;2023-07-22T01:35:19;15.70;99.90
6142;DHT22;71289;51.552;6.210;2023-07-22T01:37:46;15.70;99.90
6142;DHT22;71289;51.552;6.210;2023-07-22T01:40:11;15.70;99.90
6142;DHT22;71289;51.552;6.210;2023-07-22T01:42:41;15.70;99.90
6142;DHT22;71289;51.552;6.210;2023-07-22T01:45:08;16.00;99.90
6142;DHT22;71289;51.552;6.210;2023-07-22T01:47:34;15.70;99.90
6142;DHT22;71289;51.552;6.210;2023-07-22T01:50:04;15.70;99.90
6142;DHT22;71289;51.552;6.210;2023-07-22T01:52:31;15.70;99.90
6142;DHT22;71289;51.552;6.210;2023-07-22T01:54:57;15.60;99.90
6142;DHT22;71289;51.552;6.210;2023-07-22T01:57:23;15.60;99.90
6142;DHT22;71289;51.552;6.210;2023-07-22T01:59:48;15.60;99.90
6142;DHT22;71289;51.552;6.210;2023-07-22T02:02:14;15.60;99.90
6142;DHT22;71289;51.552;6.210;2023-07-22T02:04:39;15.70;99.90
6142;DHT22;71289;51.552;6.210;2023-07-22T02:07:05;15.70;99.90
6142;DHT22;71289;51.552;6.210;2023-07-22T02:09:32;15.70;99.90
6142;DHT22;71289;51.552;6.210;2023-07-22T02:11:58;15.70;99.90
6142;DHT22;71289;51.552;6.210;2023-07-22T02:14:24;15.80;99.90
6142;DHT22;71289;51.552;6.210;2023-07-22T02:16:49;15.80;99.90
6142;DHT22;71289;51.552;6.210;2023-07-22T02:19:15;15.80;99.90
6142;DHT22;71289;51.552;6.210;2023-07-22T02:21:41;15.80;99.90
6142;DHT22;71289;51.552;6.210;2023-07-22T02:24:08;15.80;99.90
6142;DHT22;71289;51.552;6.210;2023-07-22T02:26:34;15.80;99.90
6142;DHT22;71289;51.552;6.210;2023-07-22T02:28:59;15.80;99.90
6142;DHT22;71289;51.552;6.210;2023-07-22T02:31:25;15.80;99.90
6142;DHT22;71289;51.552;6.210;2023-07-22T02:33:50;15.80;99.90
6142;DHT22;71289;51.552;6.210;2023-07-22T02:36:16;15.70;99.90
6142;DHT22;71289;51.552;6.210;2023-07-22T02:38:41;15.70;99.90
6142;DHT22;71289;51.552;6.210;2023-07-22T02:41:07;15.80;99.90
6142;DHT22;71289;51.552;6.210;2023-07-22T02:43:34;15.80;99.90
6142;DHT22;71289;51.552;6.210;2023-07-22T02:46:05;15.80;99.90
6142;DHT22;71289;51.552;6.210;2023-07-22T02:48:33;15.70;99.90
6142;DHT22;71289;51.552;6.210;2023-07-22T02:53:30;15.80;99.90
6142;DHT22;71289;51.552;6.210;2023-07-22T02:55:56;15.80;99.90
6142;DHT22;71289;51.552;6.210;2023-07-22T02:58:21;15.50;99.90
6142;DHT22;71289;51.552;6.210;2023-07-22T03:00:47;15.80;99.90
6142;DHT22;71289;51.552;6.210;2023-07-22T03:03:12;15.80;99.90
6142;DHT22;71289;51.552;6.210;2023-07-22T03:05:38;15.80;99.90
6142;DHT22;71289;51.552;6.210;2023-07-22T03:08:03;15.80;99.90
6142;DHT22;71289;51.552;6.210;2023-07-22T03:10:29;15.80;99.90
6142;DHT22;71289;51.552;6.210;2023-07-22T03:12:55;15.80;99.90
6142;DHT22;71289;51.552;6.210;2023-07-22T03:15:24;15.70;99.90
6142;DHT22;71289;51.552;6.210;2023-07-22T03:17:51;15.70;99.90
6142;DHT22;71289;51.552;6.210;2023-07-22T03:20:17;15.80;99.90
6142;DHT22;71289;51.552;6.210;2023-07-22T03:22:44;15.70;99.90
6142;DHT22;71289;51.552;6.210;2023-07-22T03:25:10;15.70;99.90
6142;DHT22;71289;51.552;6.210;2023-07-22T03:27:37;15.70;99.90
6142;DHT22;71289;51.552;6.210;2023-07-22T03:30:04;15.70;99.90
6142;DHT22;71289;51.552;6.210;2023-07-22T03:32:32;15.70;99.90
6142;DHT22;71289;51.552;6.210;2023-07-22T03:34:57;15.70;99.90
6142;DHT22;71289;51.552;6.210;2023-07-22T03:37:23;15.70;99.90
6142;DHT22;71289;51.552;6.210;2023-07-22T03:39:48;15.70;99.90
6142;DHT22;71289;51.552;6.210;2023-07-22T03:42:14;15.70;99.90
6142;DHT22;71289;51.552;6.210;2023-07-22T03:44:39;15.70;99.90
6142;DHT22;71289;51.552;6.210;2023-07-22T03:47:06;15.70;99.90
6142;DHT22;71289;51.552;6.210;2023-07-22T03:49:31;15.70;99.90
6142;DHT22;71289;51.552;6.210;2023-07-22T03:51:57;15.70;99.90
6142;DHT22;71289;51.552;6.210;2023-07-22T03:54:22;15.60;99.90
6142;DHT22;71289;51.552;6.210;2023-07-22T03:56:48;15.60;99.90
6142;DHT22;71289;51.552;6.210;2023-07-22T03:59:13;15.70;99.90
6142;DHT22;71289;51.552;6.210;2023-07-22T04:01:39;15.70;99.90
6142;DHT22;71289;51.552;6.210;2023-07-22T04:04:04;15.70;99.90
6142;DHT22;71289;51.552;6.210;2023-07-22T04:06:30;15.70;99.90
6142;DHT22;71289;51.552;6.210;2023-07-22T04:08:55;15.60;99.90
6142;DHT22;71289;51.552;6.210;2023-07-22T04:11:21;15.60;99.90
6142;DHT22;71289;51.552;6.210;2023-07-22T04:13:46;15.70;99.90
6142;DHT22;71289;51.552;6.210;2023-07-22T04:16:12;15.70;99.90
6142;DHT22;71289;51.552;6.210;2023-07-22T04:18:37;15.70;99.90
6142;DHT22;71289;51.552;6.210;2023-07-22T04:21:03;15.60;99.90
6142;DHT22;71289;51.552;6.210;2023-07-22T04:23:28;15.60;99.90
6142;DHT22;71289;51.552;6.210;2023-07-22T04:25:54;15.60;99.90
6142;DHT22;71289;51.552;6.210;2023-07-22T04:28:19;15.90;99.90
6142;DHT22;71289;51.552;6.210;2023-07-22T04:30:55;15.60;99.90
6142;DHT22;71289;51.552;6.210;2023-07-22T04:33:21;15.60;99.90
6142;DHT22;71289;51.552;6.210;2023-07-22T04:35:46;15.60;99.90
6142;DHT22;71289;51.552;6.210;2023-07-22T04:38:12;15.60;99.90
6142;DHT22;71289;51.552;6.210;2023-07-22T04:40:42;15.50;99.90
6142;DHT22;71289;51.552;6.210;2023-07-22T04:43:07;15.60;99.90
6142;DHT22;71289;51.552;6.210;2023-07-22T04:45:33;15.60;99.90
6142;DHT22;71289;51.552;6.210;2023-07-22T04:47:59;15.60;99.90
6142;DHT22;71289;51.552;6.210;2023-07-22T04:50:25;15.60;99.90
6142;DHT22;71289;51.552;6.210;2023-07-22T04:52:50;15.60;99.90
6142;DHT22;71289;51.552;6.210;2023-07-22T04:55:17;15.50;99.90
6142;DHT22;71289;51.552;6.210;2023-07-22T04:57:42;15.50;99.90
6142;DHT22;71289;51.552;6.210;2023-07-22T05:00:11;15.50;99.90
6142;DHT22;71289;51.552;6.210;2023-07-22T05:02:45;15.50;99.90
6142;DHT22;71289;51.552;6.210;2023-07-22T05:05:14;15.40;99.90
6142;DHT22;71289;51.552;6.210;2023-07-22T05:07:40;15.40;99.90
6142;DHT22;71289;51.552;6.210;2023-07-22T05:10:07;15.30;99.90
6142;DHT22;71289;51.552;6.210;2023-07-22T05:12:40;15.30;99.90
6142;DHT22;71289;51.552;6.210;2023-07-22T05:15:06;15.30;99.90
6142;DHT22;71289;51.552;6.210;2023-07-22T05:17:32;15.30;99.90
6142;DHT22;71289;51.552;6.210;2023-07-22T05:19:58;15.30;99.90
6142;DHT22;71289;51.552;6.210;2023-07-22T05:22:24;15.30;99.90
6142;DHT22;71289;51.552;6.210;2023-07-22T05:24:49;15.40;99.90
6142;DHT22;71289;51.552;6.210;2023-07-22T05:27:16;15.40;99.90
6142;DHT22;71289;51.552;6.210;2023-07-22T05:29:42;15.40;99.90
6142;DHT22;71289;51.552;6.210;2023-07-22T05:32:08;15.50;99.90
6142;DHT22;71289;51.552;6.210;2023-07-22T05:34:33;15.50;99.90
6142;DHT22;71289;51.552;6.210;2023-07-22T05:36:59;15.60;99.90
6142;DHT22;71289;51.552;6.210;2023-07-22T05:39:24;15.70;99.90
6142;DHT22;71289;51.552;6.210;2023-07-22T05:41:50;15.60;99.90
6142;DHT22;71289;51.552;6.210;2023-07-22T05:44:16;15.70;99.90
6142;DHT22;71289;51.552;6.210;2023-07-22T05:46:41;15.70;99.90
6142;DHT22;71289;51.552;6.210;2023-07-22T05:49:08;15.70;99.90
6142;DHT22;71289;51.552;6.210;2023-07-22T05:51:34;15.80;99.90
6142;DHT22;71289;51.552;6.210;2023-07-22T05:53:59;15.80;99.90
6142;DHT22;71289;51.552;6.210;2023-07-22T05:56:25;15.90;99.90
6142;DHT22;71289;51.552;6.210;2023-07-22T05:58:51;16.00;99.90
6142;DHT22;71289;51.552;6.210;2023-07-22T06:01:16;16.10;99.90
6142;DHT22;71289;51.552;6.210;2023-07-22T06:03:42;16.20;99.90
6142;DHT22;71289;51.552;6.210;2023-07-22T06:06:09;16.20;99.90
6142;DHT22;71289;51.552;6.210;2023-07-22T06:08:35;16.30;99.90
6142;DHT22;71289;51.552;6.210;2023-07-22T06:11:00;16.40;99.90
6142;DHT22;71289;51.552;6.210;2023-07-22T06:13:26;16.50;99.90
6142;DHT22;71289;51.552;6.210;2023-07-22T06:15:52;16.30;99.90
6142;DHT22;71289;51.552;6.210;2023-07-22T06:18:17;16.60;99.90
6142;DHT22;71289;51.552;6.210;2023-07-22T06:20:44;16.70;99.90
6142;DHT22;71289;51.552;6.210;2023-07-22T06:23:09;16.80;99.90
6142;DHT22;71289;51.552;6.210;2023-07-22T06:25:35;16.90;99.90
6142;DHT22;71289;51.552;6.210;2023-07-22T06:28:01;16.90;99.90
6142;DHT22;71289;51.552;6.210;2023-07-22T06:30:26;17.00;99.90
6142;DHT22;71289;51.552;6.210;2023-07-22T06:32:52;17.00;99.90
6142;DHT22;71289;51.552;6.210;2023-07-22T06:35:18;17.10;99.90
6142;DHT22;71289;51.552;6.210;2023-07-22T06:37:44;17.10;99.90
6142;DHT22;71289;51.552;6.210;2023-07-22T06:40:10;17.20;99.90
6142;DHT22;71289;51.552;6.210;2023-07-22T06:42:35;17.20;99.90
6142;DHT22;71289;51.552;6.210;2023-07-22T06:45:01;17.60;99.90
6142;DHT22;71289;51.552;6.210;2023-07-22T06:47:27;17.40;99.90
6142;DHT22;71289;51.552;6.210;2023-07-22T06:49:52;17.40;99.90
6142;DHT22;71289;51.552;6.210;2023-07-22T06:52:18;17.50;99.90
6142;DHT22;71289;51.552;6.210;2023-07-22T06:54:43;17.60;99.90
6142;DHT22;71289;51.552;6.210;2023-07-22T06:57:09;17.70;99.90
6142;DHT22;71289;51.552;6.210;2023-07-22T06:59:35;17.80;99.90
6142;DHT22;71289;51.552;6.210;2023-07-22T07:02:01;17.90;99.90
6142;DHT22;71289;51.552;6.210;2023-07-22T07:04:26;18.00;99.90
6142;DHT22;71289;51.552;6.210;2023-07-22T07:06:52;18.10;99.90
6142;DHT22;71289;51.552;6.210;2023-07-22T07:09:17;18.40;99.90
6142;DHT22;71289;51.552;6.210;2023-07-22T07:11:44;18.20;99.90
6142;DHT22;71289;51.552;6.210;2023-07-22T07:14:10;18.20;99.90
6142;DHT22;71289;51.552;6.210;2023-07-22T07:16:35;18.30;99.90
6142;DHT22;71289;51.552;6.210;2023-07-22T07:19:01;18.30;99.90
6142;DHT22;71289;51.552;6.210;2023-07-22T07:21:27;18.30;99.90
6142;DHT22;71289;51.552;6.210;2023-07-22T07:23:53;18.40;99.90
6142;DHT22;71289;51.552;6.210;2023-07-22T07:26:20;18.50;99.90
6142;DHT22;71289;51.552;6.210;2023-07-22T07:28:46;18.60;99.90
6142;DHT22;71289;51.552;6.210;2023-07-22T07:31:12;18.50;99.90
6142;DHT22;71289;51.552;6.210;2023-07-22T07:33:37;18.60;99.90
6142;DHT22;71289;51.552;6.210;2023-07-22T07:36:03;18.60;99.90
6142;DHT22;71289;51.552;6.210;2023-07-22T07:38:29;18.60;99.90
6142;DHT22;71289;51.552;6.210;2023-07-22T07:41:05;18.70;99.90
6142;DHT22;71289;51.552;6.210;2023-07-22T07:43:37;18.80;99.90
6142;DHT22;71289;51.552;6.210;2023-07-22T07:48:49;19.00;99.90
6142;DHT22;71289;51.552;6.210;2023-07-22T07:51:15;19.10;99.90
6142;DHT22;71289;51.552;6.210;2023-07-22T07:53:42;19.30;99.90
6142;DHT22;71289;51.552;6.210;2023-07-22T07:56:09;19.20;99.90
6142;DHT22;71289;51.552;6.210;2023-07-22T07:58:35;19.30;99.90
6142;DHT22;71289;51.552;6.210;2023-07-22T08:01:01;19.20;99.90
6142;DHT22;71289;51.552;6.210;2023-07-22T08:03:26;19.20;99.90
6142;DHT22;71289;51.552;6.210;2023-07-22T08:05:52;19.20;99.90
6142;DHT22;71289;51.552;6.210;2023-07-22T08:08:17;19.10;99.90
6142;DHT22;71289;51.552;6.210;2023-07-22T08:10:43;19.10;99.90
6142;DHT22;71289;51.552;6.210;2023-07-22T08:13:10;19.10;99.90
6142;DHT22;71289;51.552;6.210;2023-07-22T08:15:35;19.00;99.90
6142;DHT22;71289;51.552;6.210;2023-07-22T08:18:01;18.90;99.90
6142;DHT22;71289;51.552;6.210;2023-07-22T08:20:27;18.90;99.90
6142;DHT22;71289;51.552;6.210;2023-07-22T08:22:52;18.90;99.90
6142;DHT22;71289;51.552;6.210;2023-07-22T08:25:18;19.00;99.90
6142;DHT22;71289;51.552;6.210;2023-07-22T08:27:43;19.00;99.90
6142;DHT22;71289;51.552;6.210;2023-07-22T08:30:09;19.00;99.90
6142;DHT22;71289;51.552;6.210;2023-07-22T08:32:35;19.10;99.90
6142;DHT22;71289;51.552;6.210;2023-07-22T08:35:00;19.40;99.90
6142;DHT22;71289;51.552;6.210;2023-07-22T08:37:26;19.10;99.90
6142;DHT22;71289;51.552;6.210;2023-07-22T08:39:51;19.10;99.90
6142;DHT22;71289;51.552;6.210;2023-07-22T08:42:18;19.00;99.90
6142;DHT22;71289;51.552;6.210;2023-07-22T08:44:48;19.00;99.90
6142;DHT22;71289;51.552;6.210;2023-07-22T08:47:15;18.90;99.90
6142;DHT22;71289;51.552;6.210;2023-07-22T08:49:45;18.90;99.90
6142;DHT22;71289;51.552;6.210;2023-07-22T08:52:13;18.90;99.90
6142;DHT22;71289;51.552;6.210;2023-07-22T08:54:40;19.00;99.90
6142;DHT22;71289;51.552;6.210;2023-07-22T08:57:06;19.10;99.90
6142;DHT22;71289;51.552;6.210;2023-07-22T08:59:32;19.20;99.90
6142;DHT22;71289;51.552;6.210;2023-07-22T09:01:58;19.60;99.90
6142;DHT22;71289;51.552;6.210;2023-07-22T09:04:24;19.40;99.90
6142;DHT22;71289;51.552;6.210;2023-07-22T09:06:50;19.50;99.90
6142;DHT22;71289;51.552;6.210;2023-07-22T09:09:16;19.50;99.90
6142;DHT22;71289;51.552;6.210;2023-07-22T09:11:42;19.60;99.90
6142;DHT22;71289;51.552;6.210;2023-07-22T09:14:08;19.70;99.90
6142;DHT22;71289;51.552;6.210;2023-07-22T09:16:35;19.90;99.90
6142;DHT22;71289;51.552;6.210;2023-07-22T09:19:03;20.40;99.90
6142;DHT22;71289;51.552;6.210;2023-07-22T09:21:29;20.20;99.90
6142;DHT22;71289;51.552;6.210;2023-07-22T09:23:55;20.60;99.90
6142;DHT22;71289;51.552;6.210;2023-07-22T09:26:20;20.50;99.90
6142;DHT22;71289;51.552;6.210;2023-07-22T09:28:55;20.30;99.90
6142;DHT22;71289;51.552;6.210;2023-07-22T09:31:25;20.30;99.90
6142;DHT22;71289;51.552;6.210;2023-07-22T09:33:52;20.40;99.90
6142;DHT22;71289;51.552;6.210;2023-07-22T09:36:20;20.70;99.90
6142;DHT22;71289;51.552;6.210;2023-07-22T09:39:00;20.60;99.90
6142;DHT22;71289;51.552;6.210;2023-07-22T09:41:28;20.70;99.90
6142;DHT22;71289;51.552;6.210;2023-07-22T09:43:56;20.50;99.90
6142;DHT22;71289;51.552;6.210;2023-07-22T09:46:21;21.10;99.90
6142;DHT22;71289;51.552;6.210;2023-07-22T09:48:55;20.90;99.90
6142;DHT22;71289;51.552;6.210;2023-07-22T09:51:21;20.90;99.90
6142;DHT22;71289;51.552;6.210;2023-07-22T09:53:48;21.00;99.90
6142;DHT22;71289;51.552;6.210;2023-07-22T09:56:24;21.00;99.90
6142;DHT22;71289;51.552;6.210;2023-07-22T09:58:50;21.10;99.90
6142;DHT22;71289;51.552;6.210;2023-07-22T10:01:19;21.30;99.90
6142;DHT22;71289;51.552;6.210;2023-07-22T10:03:46;21.20;99.90
6142;DHT22;71289;51.552;6.210;2023-07-22T10:06:14;21.40;99.90
6142;DHT22;71289;51.552;6.210;2023-07-22T10:08:43;21.40;99.90
6142;DHT22;71289;51.552;6.210;2023-07-22T10:11:11;21.70;99.90
6142;DHT22;71289;51.552;6.210;2023-07-22T10:13:38;21.50;99.90
6142;DHT22;71289;51.552;6.210;2023-07-22T10:16:05;21.50;99.90
6142;DHT22;71289;51.552;6.210;2023-07-22T10:18:32;21.40;99.90
6142;DHT22;71289;51.552;6.210;2023-07-22T10:20:57;21.40;99.90
6142;DHT22;71289;51.552;6.210;2023-07-22T10:23:25;21.20;99.90
6142;DHT22;71289;51.552;6.210;2023-07-22T10:25:53;21.30;99.90
6142;DHT22;71289;51.552;6.210;2023-07-22T10:28:20;21.30;99.90
6142;DHT22;71289;51.552;6.210;2023-07-22T10:30:46;21.30;99.90
6142;DHT22;71289;51.552;6.210;2023-07-22T10:33:11;21.30;99.90
6142;DHT22;71289;51.552;6.210;2023-07-22T10:35:41;21.30;99.90
6142;DHT22;71289;51.552;6.210;2023-07-22T10:38:15;21.30;99.90
6142;DHT22;71289;51.552;6.210;2023-07-22T10:40:55;21.40;99.90
6142;DHT22;71289;51.552;6.210;2023-07-22T10:43:32;21.40;99.90
6142;DHT22;71289;51.552;6.210;2023-07-22T10:46:10;21.40;99.90
6142;DHT22;71289;51.552;6.210;2023-07-22T10:48:37;21.30;99.90
6142;DHT22;71289;51.552;6.210;2023-07-22T10:51:14;21.30;99.90
6142;DHT22;71289;51.552;6.210;2023-07-22T10:53:42;21.70;99.90
6142;DHT22;71289;51.552;6.210;2023-07-22T10:58:55;21.30;99.90
6142;DHT22;71289;51.552;6.210;2023-07-22T11:04:13;21.40;99.90
6142;DHT22;71289;51.552;6.210;2023-07-22T11:11:59;21.50;99.90
6142;DHT22;71289;51.552;6.210;2023-07-22T11:14:28;21.60;99.90
6142;DHT22;71289;51.552;6.210;2023-07-22T11:16:57;21.60;99.90
6142;DHT22;71289;51.552;6.210;2023-07-22T11:19:23;21.90;99.90
6142;DHT22;71289;51.552;6.210;2023-07-22T11:21:51;22.10;99.90
6142;DHT22;71289;51.552;6.210;2023-07-22T11:24:17;22.20;99.90
6142;DHT22;71289;51.552;6.210;2023-07-22T11:26:43;22.30;99.90
6142;DHT22;71289;51.552;6.210;2023-07-22T11:29:10;22.30;99.90
6142;DHT22;71289;51.552;6.210;2023-07-22T11:31:37;22.30;99.90
6142;DHT22;71289;51.552;6.210;2023-07-22T11:34:08;22.40;99.90
6142;DHT22;71289;51.552;6.210;2023-07-22T11:36:34;22.40;99.90
6142;DHT22;71289;51.552;6.210;2023-07-22T11:39:05;22.10;99.90
6142;DHT22;71289;51.552;6.210;2023-07-22T11:41:32;22.20;99.90
6142;DHT22;71289;51.552;6.210;2023-07-22T11:43:59;22.30;99.90
6142;DHT22;71289;51.552;6.210;2023-07-22T11:46:26;22.30;99.90
6142;DHT22;71289;51.552;6.210;2023-07-22T11:48:53;22.30;99.90
6142;DHT22;71289;51.552;6.210;2023-07-22T11:51:20;22.40;99.90
6142;DHT22;71289;51.552;6.210;2023-07-22T11:53:47;22.50;99.90
6142;DHT22;71289;51.552;6.210;2023-07-22T11:56:27;22.50;99.90
6142;DHT22;71289;51.552;6.210;2023-07-22T11:58:55;22.40;99.90
6142;DHT22;71289;51.552;6.210;2023-07-22T12:01:21;22.50;99.90
6142;DHT22;71289;51.552;6.210;2023-07-22T12:03:47;22.60;99.90
6142;DHT22;71289;51.552;6.210;2023-07-22T12:06:14;22.60;99.90
6142;DHT22;71289;51.552;6.210;2023-07-22T12:08:45;22.60;99.90
6142;DHT22;71289;51.552;6.210;2023-07-22T12:11:21;22.60;99.90
6142;DHT22;71289;51.552;6.210;2023-07-22T12:13:47;22.60;99.90
6142;DHT22;71289;51.552;6.210;2023-07-22T12:16:22;22.50;99.90
6142;DHT22;71289;51.552;6.210;2023-07-22T12:18:49;22.50;99.90
6142;DHT22;71289;51.552;6.210;2023-07-22T12:21:15;22.50;99.90
6142;DHT22;71289;51.552;6.210;2023-07-22T12:23:42;22.40;99.90
6142;DHT22;71289;51.552;6.210;2023-07-22T12:26:07;22.40;99.90
6142;DHT22;71289;51.552;6.210;2023-07-22T12:28:33;22.40;99.90
6142;DHT22;71289;51.552;6.210;2023-07-22T12:30:59;22.20;99.90
6142;DHT22;71289;51.552;6.210;2023-07-22T12:33:25;22.60;99.90
6142;DHT22;71289;51.552;6.210;2023-07-22T12:35:52;22.70;99.90
6142;DHT22;71289;51.552;6.210;2023-07-22T12:38:18;22.70;99.90
6142;DHT22;71289;51.552;6.210;2023-07-22T12:40:43;22.90;99.90
6142;DHT22;71289;51.552;6.210;2023-07-22T12:43:09;22.70;99.90
6142;DHT22;71289;51.552;6.210;2023-07-22T12:45:34;22.70;99.90
6142;DHT22;71289;51.552;6.210;2023-07-22T12:48:00;22.70;99.90
6142;DHT22;71289;51.552;6.210;2023-07-22T12:50:25;22.90;99.90
6142;DHT22;71289;51.552;6.210;2023-07-22T12:52:51;23.10;99.90
6142;DHT22;71289;51.552;6.210;2023-07-22T12:55:16;23.10;99.90
6142;DHT22;71289;51.552;6.210;2023-07-22T12:57:42;23.10;99.90
6142;DHT22;71289;51.552;6.210;2023-07-22T13:00:08;23.10;99.90
6142;DHT22;71289;51.552;6.210;2023-07-22T13:02:37;23.10;99.90
6142;DHT22;71289;51.552;6.210;2023-07-22T13:05:03;23.10;99.90
6142;DHT22;71289;51.552;6.210;2023-07-22T13:07:29;23.10;99.90
6142;DHT22;71289;51.552;6.210;2023-07-22T13:09:55;23.00;99.90
6142;DHT22;71289;51.552;6.210;2023-07-22T13:12:22;23.00;99.90
6142;DHT22;71289;51.552;6.210;2023-07-22T13:14:47;23.00;99.90
6142;DHT22;71289;51.552;6.210;2023-07-22T13:17:13;23.00;99.90
6142;DHT22;71289;51.552;6.210;2023-07-22T13:19:38;23.00;99.90
6142;DHT22;71289;51.552;6.210;2023-07-22T13:22:04;23.10;99.90
6142;DHT22;71289;51.552;6.210;2023-07-22T13:24:30;23.10;99.90
6142;DHT22;71289;51.552;6.210;2023-07-22T13:26:55;23.10;99.90
6142;DHT22;71289;51.552;6.210;2023-07-22T13:29:21;23.10;99.90
6142;DHT22;71289;51.552;6.210;2023-07-22T13:31:46;23.10;99.90
6142;DHT22;71289;51.552;6.210;2023-07-22T13:34:12;23.10;99.90
6142;DHT22;71289;51.552;6.210;2023-07-22T13:36:37;23.00;99.90
6142;DHT22;71289;51.552;6.210;2023-07-22T13:39:03;22.90;99.90
6142;DHT22;71289;51.552;6.210;2023-07-22T13:41:28;22.90;99.90
6142;DHT22;71289;51.552;6.210;2023-07-22T13:43:54;22.90;99.90
6142;DHT22;71289;51.552;6.210;2023-07-22T13:46:20;22.90;99.90
6142;DHT22;71289;51.552;6.210;2023-07-22T13:48:45;22.90;99.90
6142;DHT22;71289;51.552;6.210;2023-07-22T13:51:11;22.90;99.90
6142;DHT22;71289;51.552;6.210;2023-07-22T13:53:36;22.90;99.90
6142;DHT22;71289;51.552;6.210;2023-07-22T13:56:02;22.80;99.90
6142;DHT22;71289;51.552;6.210;2023-07-22T13:58:28;22.80;99.90
6142;DHT22;71289;51.552;6.210;2023-07-22T14:00:54;22.80;99.90
6142;DHT22;71289;51.552;6.210;2023-07-22T14:03:19;22.60;99.90
6142;DHT22;71289;51.552;6.210;2023-07-22T14:05:45;23.10;99.90
6142;DHT22;71289;51.552;6.210;2023-07-22T14:08:11;23.30;99.90
6142;DHT22;71289;51.552;6.210;2023-07-22T14:10:37;23.50;99.90
6142;DHT22;71289;51.552;6.210;2023-07-22T14:13:02;23.50;99.90
6142;DHT22;71289;51.552;6.210;2023-07-22T14:15:28;23.50;99.90
6142;DHT22;71289;51.552;6.210;2023-07-22T14:17:53;23.50;99.90
6142;DHT22;71289;51.552;6.210;2023-07-22T14:20:19;23.50;99.90
6142;DHT22;71289;51.552;6.210;2023-07-22T14:22:45;23.50;99.90
6142;DHT22;71289;51.552;6.210;2023-07-22T14:25:11;23.40;99.90
6142;DHT22;71289;51.552;6.210;2023-07-22T14:27:38;23.40;99.90
6142;DHT22;71289;51.552;6.210;2023-07-22T14:30:04;23.70;99.90
6142;DHT22;71289;51.552;6.210;2023-07-22T14:32:31;23.60;99.90
6142;DHT22;71289;51.552;6.210;2023-07-22T14:34:56;23.80;99.90
6142;DHT22;71289;51.552;6.210;2023-07-22T14:37:22;23.90;99.90
6142;DHT22;71289;51.552;6.210;2023-07-22T14:39:48;24.10;99.90
6142;DHT22;71289;51.552;6.210;2023-07-22T14:42:13;24.20;99.90
6142;DHT22;71289;51.552;6.210;2023-07-22T14:44:39;24.20;99.90
6142;DHT22;71289;51.552;6.210;2023-07-22T14:47:04;24.40;99.90
6142;DHT22;71289;51.552;6.210;2023-07-22T14:49:30;24.20;99.90
6142;DHT22;71289;51.552;6.210;2023-07-22T14:51:56;24.20;99.90
6142;DHT22;71289;51.552;6.210;2023-07-22T14:54:21;24.20;99.90
6142;DHT22;71289;51.552;6.210;2023-07-22T14:56:47;24.30;99.90
6142;DHT22;71289;51.552;6.210;2023-07-22T14:59:14;24.20;99.90
6142;DHT22;71289;51.552;6.210;2023-07-22T15:01:41;24.00;99.90
6142;DHT22;71289;51.552;6.210;2023-07-22T15:04:06;23.80;99.90
6142;DHT22;71289;51.552;6.210;2023-07-22T15:06:32;23.80;99.90
6142;DHT22;71289;51.552;6.210;2023-07-22T15:08:58;23.70;99.90
6142;DHT22;71289;51.552;6.210;2023-07-22T15:11:24;23.70;99.90
6142;DHT22;71289;51.552;6.210;2023-07-22T15:13:49;23.70;99.90
6142;DHT22;71289;51.552;6.210;2023-07-22T15:16:15;23.50;99.90
6142;DHT22;71289;51.552;6.210;2023-07-22T15:18:41;23.40;99.90
6142;DHT22;71289;51.552;6.210;2023-07-22T15:21:07;23.60;99.90
6142;DHT22;71289;51.552;6.210;2023-07-22T15:23:32;23.40;99.90
6142;DHT22;71289;51.552;6.210;2023-07-22T15:25:58;23.50;99.90
6142;DHT22;71289;51.552;6.210;2023-07-22T15:28:24;23.60;99.90
6142;DHT22;71289;51.552;6.210;2023-07-22T15:30:50;23.60;99.90
6142;DHT22;71289;51.552;6.210;2023-07-22T15:33:16;23.60;99.90
6142;DHT22;71289;51.552;6.210;2023-07-22T15:35:41;23.50;99.90
6142;DHT22;71289;51.552;6.210;2023-07-22T15:38:07;23.50;99.90
6142;DHT22;71289;51.552;6.210;2023-07-22T15:40:35;23.40;99.90
6142;DHT22;71289;51.552;6.210;2023-07-22T15:43:00;23.40;99.90
6142;DHT22;71289;51.552;6.210;2023-07-22T15:45:26;23.30;99.90
6142;DHT22;71289;51.552;6.210;2023-07-22T15:47:51;23.40;99.90
6142;DHT22;71289;51.552;6.210;2023-07-22T15:50:17;23.10;99.90
6142;DHT22;71289;51.552;6.210;2023-07-22T15:52:43;23.10;99.90
6142;DHT22;71289;51.552;6.210;2023-07-22T15:55:09;23.10;99.90